Accueil
METAR-TAF:

METAR-TAF

Aéroports :

Aéroport international Princess Juliana

Saint-Martin, Antilles néerlandaises

latitude: 18-03N, longitude: 063-07W, altitude: 4 m

Observation

Le bulletin a été fait il y a 20 minutes, à 15:00 UTC
Vent 7 kt de est/nord-est, variant entre nord/nord-est et est/sud-est
Température 30°C
Humidité 46%
Pression 1016 hPa
Visibilité 10 km ou plus
Quelques nuages à une hauteur de 2200 ft

METAR: TNCM 011500Z 07007KT 030V120 9999 FEW022 30/17 Q1016 NOSIG

Heure: 11:20 (15:20 UTC)

Prévision

Le bulletin a été fait il y a 3 heures et 45 minutes, à 11:35 UTC
Prévision valable du 01 à 12 UTC au 02 à 12 UTC
Vent 9 kt de est/nord-est
Visibilité: 10 km
Quelques nuages à une hauteur de 1800 ft

TAF: TNCM 011135Z 0112/0212 07009KT P6SM FEW018

Observations et prévisions météorologiques de plus de 4000 aéroports (messages METAR et TAF).

Les stations disponibles sont représentées par des disques jaunes et rouges sur la carte.

Passer la souris dessus pour voir le nom de la station.

Cliquer dessus pour voir les observations et prévisions météorologiques.

Pour changer de carte: cliquez sur les boutons verts avec une croix noire pour zoomer, sur le bouton vert avec un tiret pour effectuer un zoom arrière, ou sur les flèches vertes pour les cartes adjacentes.


METAR-TAF: